Time;durP1;ratioP1;P1;durP2;ratioP2;P2;SDS_P1;SDS_P2;PMS_P1;PMS_P2;Temp;Humidity;BMP_temperature;BMP_pressure;BME280_temperature;BME280_humidity;BME280_pressure;Samples;Min_cycle;Max_cycle;Signal;HPM_P1;HPM_P2
2021/11/22 00:00:30;;;;;;;20.75;14.35;;;;;;;;;;5111916;28;20032;-74
2021/11/22 00:02:57;;;;;;;21.60;14.10;;;;;;;;;;5112067;28;20046;-73
2021/11/22 00:05:23;;;;;;;24.55;15.07;;;;;;;;;;5111100;28;20043;-71
2021/11/22 00:07:49;;;;;;;21.08;13.95;;;;;;;;;;5112041;28;20095;-73
2021/11/22 00:10:16;;;;;;;20.90;13.70;;;;;;;;;;5112083;28;20023;-71
2021/11/22 00:12:42;;;;;;;22.27;13.77;;;;;;;;;;5111973;28;20027;-74
2021/11/22 00:15:10;;;;;;;20.73;13.95;;;;;;;;;;5093519;28;20032;-75
2021/11/22 00:17:36;;;;;;;22.92;13.50;;;;;;;;;;5111491;28;20019;-75
2021/11/22 00:20:04;;;;;;;20.98;14.18;;;;;;;;;;5111553;28;20034;-70
2021/11/22 00:22:31;;;;;;;21.50;14.32;;;;;;;;;;5110841;28;20157;-73
2021/11/22 00:24:57;;;;;;;22.55;14.23;;;;;;;;;;5112365;28;20035;-69
2021/11/22 00:27:23;;;;;;;22.33;15.13;;;;;;;;;;5112786;28;20542;-76
2021/11/22 00:29:49;;;;;;;23.75;15.02;;;;;;;;;;5112037;28;20035;-73
2021/11/22 00:32:15;;;;;;;23.33;15.15;;;;;;;;;;5093677;28;20110;-76
2021/11/22 00:34:42;;;;;;;27.30;14.57;;;;;;;;;;5111868;28;20027;-71
2021/11/22 00:37:16;;;;;;;24.90;14.93;;;;;;;;;;5100512;28;20344;-73
2021/11/22 00:39:42;;;;;;;23.42;15.25;;;;;;;;;;5092209;28;20491;-76
2021/11/22 00:42:08;;;;;;;25.67;15.15;;;;;;;;;;5091785;28;20514;-75
2021/11/22 00:44:36;;;;;;;24.27;15.45;;;;;;;;;;5091221;28;20028;-76
2021/11/22 00:47:02;;;;;;;23.92;14.40;;;;;;;;;;5073150;28;20052;-77
2021/11/22 00:49:28;;;;;;;25.10;15.50;;;;;;;;;;5091074;28;20483;-77
2021/11/22 00:51:54;;;;;;;23.58;14.88;;;;;;;;;;5091272;28;20028;-77
2021/11/22 00:54:20;;;;;;;22.70;14.90;;;;;;;;;;5091140;28;20538;-77
2021/11/22 00:56:46;;;;;;;24.25;15.32;;;;;;;;;;5091610;28;20020;-77
2021/11/22 00:59:12;;;;;;;23.23;14.98;;;;;;;;;;5080825;28;20063;-76
2021/11/22 01:01:38;;;;;;;24.33;15.05;;;;;;;;;;5111423;28;20023;-76
2021/11/22 01:04:04;;;;;;;24.85;15.45;;;;;;;;;;5113928;28;20344;-73
2021/11/22 01:06:31;;;;;;;25.95;15.75;;;;;;;;;;5115011;28;20055;-70
2021/11/22 01:08:57;;;;;;;26.40;16.25;;;;;;;;;;5115180;28;20055;-74
2021/11/22 01:11:23;;;;;;;24.30;14.65;;;;;;;;;;5096917;28;20057;-72
2021/11/22 01:13:49;;;;;;;26.38;16.92;;;;;;;;;;5114469;28;20020;-76
2021/11/22 01:16:15;;;;;;;24.25;15.18;;;;;;;;;;5115376;28;20023;-77
2021/11/22 01:18:41;;;;;;;23.55;15.20;;;;;;;;;;5115108;28;20019;-74
2021/11/22 01:21:07;;;;;;;22.55;15.30;;;;;;;;;;5115027;28;20047;-74
2021/11/22 01:23:34;;;;;;;25.58;16.02;;;;;;;;;;5114914;28;20030;-75
2021/11/22 01:26:00;;;;;;;23.88;15.43;;;;;;;;;;5114848;28;20118;-75
2021/11/22 01:28:27;;;;;;;23.45;15.27;;;;;;;;;;5115066;28;20094;-75
2021/11/22 01:30:53;;;;;;;23.73;14.95;;;;;;;;;;5095957;28;20169;-73
2021/11/22 01:33:20;;;;;;;25.40;15.77;;;;;;;;;;5115065;28;20028;-76
2021/11/22 01:35:46;;;;;;;25.02;15.25;;;;;;;;;;5114675;28;20023;-71
2021/11/22 01:38:12;;;;;;;24.10;15.32;;;;;;;;;;5094326;28;20057;-69
2021/11/22 01:40:39;;;;;;;23.67;15.32;;;;;;;;;;5094331;28;20028;-74
2021/11/22 01:43:06;;;;;;;24.67;15.60;;;;;;;;;;5094339;28;20055;-69
2021/11/22 01:45:33;;;;;;;23.55;15.88;;;;;;;;;;5075895;28;20035;-74
2021/11/22 01:47:59;;;;;;;24.08;15.60;;;;;;;;;;5094713;28;20641;-75
2021/11/22 01:50:26;;;;;;;24.00;15.45;;;;;;;;;;5094380;28;20531;-71
2021/11/22 01:52:52;;;;;;;25.20;15.43;;;;;;;;;;5094035;28;20020;-73
2021/11/22 01:55:20;;;;;;;24.35;15.65;;;;;;;;;;5094135;28;20069;-70
2021/11/22 01:57:47;;;;;;;24.13;16.45;;;;;;;;;;5093908;28;20078;-74
2021/11/22 02:00:17;;;;;;;24.30;15.52;;;;;;;;;;5110514;28;20051;-74
2021/11/22 02:02:43;;;;;;;22.65;15.50;;;;;;;;;;5114513;28;20016;-76
2021/11/22 02:05:09;;;;;;;25.00;16.38;;;;;;;;;;5113364;28;20031;-72
2021/11/22 02:07:36;;;;;;;23.77;15.95;;;;;;;;;;5094769;28;20114;-73
2021/11/22 02:10:03;;;;;;;23.65;15.15;;;;;;;;;;5094583;28;20081;-70
2021/11/22 02:12:31;;;;;;;29.20;15.68;;;;;;;;;;5094426;28;20103;-71
2021/11/22 02:14:57;;;;;;;25.38;15.48;;;;;;;;;;5094083;28;20038;-70
2021/11/22 02:17:23;;;;;;;25.73;16.05;;;;;;;;;;5094165;28;20104;-71
2021/11/22 02:19:55;;;;;;;23.70;14.85;;;;;;;;;;5094498;28;20020;-77
2021/11/22 02:22:21;;;;;;;24.83;16.90;;;;;;;;;;5094539;28;20023;-74
2021/11/22 02:24:47;;;;;;;31.77;17.65;;;;;;;;;;5093636;28;20059;-65
2021/11/22 02:27:13;;;;;;;27.02;16.30;;;;;;;;;;5093406;28;20107;-63
2021/11/22 02:29:39;;;;;;;30.83;17.05;;;;;;;;;;5093380;28;20020;-69
2021/11/22 02:32:05;;;;;;;31.23;17.23;;;;;;;;;;5093430;28;20028;-65
2021/11/22 02:34:32;;;;;;;26.27;16.40;;;;;;;;;;5075071;28;20028;-68
2021/11/22 02:36:58;;;;;;;27.02;17.83;;;;;;;;;;5093224;28;20104;-79
2021/11/22 02:39:24;;;;;;;28.48;17.50;;;;;;;;;;5093906;28;20024;-83
2021/11/22 02:41:50;;;;;;;27.63;17.80;;;;;;;;;;5071478;28;20045;-66
2021/11/22 02:44:16;;;;;;;25.02;16.23;;;;;;;;;;5072955;28;20046;-63
2021/11/22 02:46:42;;;;;;;26.50;17.25;;;;;;;;;;5072892;28;20077;-66
2021/11/22 02:49:08;;;;;;;25.63;16.45;;;;;;;;;;5072876;28;20024;-70
2021/11/22 02:51:35;;;;;;;26.70;15.80;;;;;;;;;;5072801;28;20024;-76
2021/11/22 02:54:02;;;;;;;28.65;17.23;;;;;;;;;;5073349;28;20657;-68
2021/11/22 02:56:30;;;;;;;26.77;17.70;;;;;;;;;;5073408;28;20021;-66
2021/11/22 02:58:56;;;;;;;31.05;17.50;;;;;;;;;;5078232;28;20107;-69
2021/11/22 03:01:22;;;;;;;28.65;17.27;;;;;;;;;;5093086;28;20063;-67
2021/11/22 03:03:48;;;;;;;26.23;16.75;;;;;;;;;;5093011;28;20479;-64
2021/11/22 03:06:16;;;;;;;24.90;17.40;;;;;;;;;;5092765;28;20032;-64
2021/11/22 03:08:43;;;;;;;26.88;16.45;;;;;;;;;;5092858;28;20166;-65
2021/11/22 03:11:09;;;;;;;29.13;17.27;;;;;;;;;;5092895;28;20134;-70
2021/11/22 03:13:36;;;;;;;27.20;16.30;;;;;;;;;;5091839;28;20054;-71
2021/11/22 03:16:02;;;;;;;29.02;17.02;;;;;;;;;;5092661;28;20024;-67
2021/11/22 03:18:29;;;;;;;29.35;18.13;;;;;;;;;;5092584;28;20107;-64
2021/11/22 03:20:56;;;;;;;27.42;17.25;;;;;;;;;;5092710;28;20124;-70
2021/11/22 03:23:22;;;;;;;28.95;18.05;;;;;;;;;;5092532;28;20020;-66
2021/11/22 03:25:49;;;;;;;30.20;17.48;;;;;;;;;;5091714;28;20101;-69
2021/11/22 03:28:17;;;;;;;27.30;16.90;;;;;;;;;;5092407;28;20020;-72
2021/11/22 03:30:43;;;;;;;28.40;17.98;;;;;;;;;;5091564;28;20115;-69
2021/11/22 03:33:09;;;;;;;27.48;17.50;;;;;;;;;;5092573;28;20044;-66
2021/11/22 03:35:35;;;;;;;28.90;17.75;;;;;;;;;;5092448;28;20016;-63
2021/11/22 03:38:01;;;;;;;30.25;17.73;;;;;;;;;;5073314;28;20348;-66
2021/11/22 03:40:28;;;;;;;29.73;17.77;;;;;;;;;;5071937;28;20487;-63
2021/11/22 03:45:34;;;;;;;28.35;18.25;;;;;;;;;;5072421;28;20032;-69
2021/11/22 03:48:00;;;;;;;28.83;17.20;;;;;;;;;;5072562;28;20021;-61
2021/11/22 03:50:26;;;;;;;28.48;18.10;;;;;;;;;;5071686;28;20028;-62
2021/11/22 03:52:52;;;;;;;27.38;17.38;;;;;;;;;;5071623;28;20020;-62
2021/11/22 03:55:18;;;;;;;28.58;17.55;;;;;;;;;;5071629;28;20035;-62
2021/11/22 03:57:46;;;;;;;31.05;18.30;;;;;;;;;;5070993;28;20017;-62
2021/11/22 04:00:13;;;;;;;28.15;18.50;;;;;;;;;;5086476;28;20368;-68
2021/11/22 04:02:39;;;;;;;25.83;16.42;;;;;;;;;;5092218;28;20020;-70
2021/11/22 04:05:05;;;;;;;29.25;17.77;;;;;;;;;;5091356;28;20087;-68
2021/11/22 04:07:31;;;;;;;30.13;17.35;;;;;;;;;;5090632;28;20540;-63
2021/11/22 04:09:57;;;;;;;27.00;17.63;;;;;;;;;;5091810;28;20030;-69
2021/11/22 04:12:24;;;;;;;26.83;17.38;;;;;;;;;;5091815;28;20154;-63
2021/11/22 04:14:50;;;;;;;26.67;17.27;;;;;;;;;;5091419;28;20031;-62
2021/11/22 04:17:17;;;;;;;27.30;16.85;;;;;;;;;;5091890;28;20024;-65
2021/11/22 04:19:43;;;;;;;31.63;18.90;;;;;;;;;;5090119;28;20031;-71
2021/11/22 04:22:09;;;;;;;33.42;17.27;;;;;;;;;;5074938;28;20089;-76
2021/11/22 04:24:35;;;;;;;29.15;17.40;;;;;;;;;;5071081;28;20024;-73
2021/11/22 04:27:02;;;;;;;31.77;17.05;;;;;;;;;;5071230;28;20445;-74
2021/11/22 04:29:28;;;;;;;28.48;17.48;;;;;;;;;;5071188;28;20062;-75
2021/11/22 04:31:54;;;;;;;30.13;17.58;;;;;;;;;;5071020;28;20106;-72
2021/11/22 04:34:20;;;;;;;29.85;18.08;;;;;;;;;;5071161;28;20050;-75
2021/11/22 04:36:47;;;;;;;29.48;18.23;;;;;;;;;;5087919;28;20024;-71
2021/11/22 04:39:13;;;;;;;30.42;19.55;;;;;;;;;;5094796;28;20040;-77
2021/11/22 04:41:39;;;;;;;33.47;18.90;;;;;;;;;;5103361;28;20092;-70
2021/11/22 04:44:05;;;;;;;28.23;17.92;;;;;;;;;;5116133;28;20051;-76
2021/11/22 04:46:32;;;;;;;35.95;19.40;;;;;;;;;;5116203;28;20039;-77
2021/11/22 04:48:58;;;;;;;27.83;17.88;;;;;;;;;;5115767;28;20021;-74
2021/11/22 04:51:25;;;;;;;29.67;16.98;;;;;;;;;;5116030;28;20020;-75
2021/11/22 04:53:51;;;;;;;34.80;19.20;;;;;;;;;;5115828;28;20529;-76
2021/11/22 04:56:17;;;;;;;33.28;18.08;;;;;;;;;;5114886;28;20027;-74
2021/11/22 04:58:43;;;;;;;29.63;18.02;;;;;;;;;;5115359;28;20047;-75
2021/11/22 05:01:09;;;;;;;32.75;19.98;;;;;;;;;;5115757;28;20027;-77
2021/11/22 05:03:35;;;;;;;29.83;19.42;;;;;;;;;;5115713;28;20421;-76
2021/11/22 05:06:01;;;;;;;32.83;20.08;;;;;;;;;;5097229;28;20043;-74
2021/11/22 05:08:27;;;;;;;34.38;18.52;;;;;;;;;;5115339;28;20054;-75
2021/11/22 05:10:54;;;;;;;32.83;19.65;;;;;;;;;;5115331;28;20039;-77
2021/11/22 05:13:20;;;;;;;33.10;19.52;;;;;;;;;;5096238;28;20016;-76
2021/11/22 05:15:49;;;;;;;31.15;19.00;;;;;;;;;;5115144;28;20024;-72
2021/11/22 05:18:15;;;;;;;34.58;18.88;;;;;;;;;;5114940;28;20106;-75
2021/11/22 05:20:42;;;;;;;40.15;20.65;;;;;;;;;;5103233;28;20028;-73
2021/11/22 05:23:09;;;;;;;35.38;20.00;;;;;;;;;;5094902;28;20039;-74
2021/11/22 05:25:35;;;;;;;41.85;19.23;;;;;;;;;;5095154;28;20029;-74
2021/11/22 05:28:02;;;;;;;41.20;19.42;;;;;;;;;;5095103;28;20069;-68
2021/11/22 05:30:28;;;;;;;39.55;18.92;;;;;;;;;;5077580;28;20059;-74
2021/11/22 05:32:55;;;;;;;33.35;18.90;;;;;;;;;;5095017;28;20057;-74
2021/11/22 05:35:22;;;;;;;35.25;19.38;;;;;;;;;;5094916;28;20624;-70
2021/11/22 05:37:48;;;;;;;35.80;18.80;;;;;;;;;;5095028;28;20039;-72
2021/11/22 05:40:14;;;;;;;37.40;19.38;;;;;;;;;;5094681;28;20027;-71
2021/11/22 05:42:40;;;;;;;36.60;20.33;;;;;;;;;;5094319;28;20052;-71
2021/11/22 05:45:07;;;;;;;33.85;19.00;;;;;;;;;;5095112;28;20545;-73
2021/11/22 05:47:33;;;;;;;37.35;18.58;;;;;;;;;;5114019;28;20110;-67
2021/11/22 05:50:09;;;;;;;39.30;19.35;;;;;;;;;;5095587;28;20024;-72
2021/11/22 05:52:36;;;;;;;33.38;18.80;;;;;;;;;;5114736;28;20024;-68
2021/11/22 05:55:05;;;;;;;38.13;18.75;;;;;;;;;;5096212;28;20030;-70
2021/11/22 05:57:31;;;;;;;38.80;19.00;;;;;;;;;;5114441;28;20497;-72
2021/11/22 05:59:58;;;;;;;33.65;19.13;;;;;;;;;;5114454;28;20046;-72
2021/11/22 06:02:24;;;;;;;32.88;19.30;;;;;;;;;;5113390;28;20019;-69
2021/11/22 06:04:50;;;;;;;36.25;19.63;;;;;;;;;;5114079;28;20026;-68
2021/11/22 06:07:16;;;;;;;42.33;19.38;;;;;;;;;;5114194;28;20031;-68
2021/11/22 06:09:42;;;;;;;43.10;19.63;;;;;;;;;;5114200;28;20043;-70
2021/11/22 06:12:09;;;;;;;31.88;18.25;;;;;;;;;;5095971;28;20403;-67
2021/11/22 06:14:35;;;;;;;49.05;20.15;;;;;;;;;;5114049;28;20020;-68
2021/11/22 06:17:02;;;;;;;35.25;18.75;;;;;;;;;;5113925;28;20012;-68
2021/11/22 06:19:28;;;;;;;39.70;18.10;;;;;;;;;;5112850;28;20019;-70
2021/11/22 06:21:54;;;;;;;32.88;18.55;;;;;;;;;;5113880;28;20025;-72
2021/11/22 06:24:21;;;;;;;34.17;19.40;;;;;;;;;;5114040;28;20103;-71
2021/11/22 06:26:49;;;;;;;30.63;18.40;;;;;;;;;;5113890;28;20035;-70
2021/11/22 06:29:17;;;;;;;33.35;19.00;;;;;;;;;;5114119;28;20043;-68
2021/11/22 06:31:44;;;;;;;33.05;18.17;;;;;;;;;;5114722;28;20024;-72
2021/11/22 06:34:10;;;;;;;38.60;19.88;;;;;;;;;;5114637;28;20046;-73
2021/11/22 06:36:36;;;;;;;41.13;19.90;;;;;;;;;;5099680;28;20471;-72
2021/11/22 06:39:02;;;;;;;40.40;19.27;;;;;;;;;;5093590;28;20538;-73
2021/11/22 06:41:28;;;;;;;42.05;19.63;;;;;;;;;;5093597;28;20146;-73
2021/11/22 06:43:54;;;;;;;36.15;18.48;;;;;;;;;;5093742;28;20483;-73
2021/11/22 06:46:20;;;;;;;38.20;19.58;;;;;;;;;;5093620;28;20043;-72
2021/11/22 06:48:47;;;;;;;33.78;18.52;;;;;;;;;;5093533;28;20024;-71
2021/11/22 06:51:13;;;;;;;34.40;19.23;;;;;;;;;;5093775;28;20073;-72
2021/11/22 06:53:39;;;;;;;36.75;19.83;;;;;;;;;;5094453;28;20048;-73
2021/11/22 06:56:05;;;;;;;34.45;17.23;;;;;;;;;;5093689;28;20028;-73
2021/11/22 06:58:31;;;;;;;30.67;18.48;;;;;;;;;;5093406;28;20031;-73
2021/11/22 07:00:57;;;;;;;37.58;19.60;;;;;;;;;;5091985;28;20094;-73
2021/11/22 07:03:25;;;;;;;34.92;17.35;;;;;;;;;;5093208;28;20050;-69
2021/11/22 07:05:51;;;;;;;27.13;15.95;;;;;;;;;;5113013;28;20359;-74
2021/11/22 07:08:17;;;;;;;37.42;15.75;;;;;;;;;;5095047;28;20043;-72
2021/11/22 07:10:43;;;;;;;31.20;15.80;;;;;;;;;;5112115;28;20073;-74
2021/11/22 07:13:09;;;;;;;30.10;15.10;;;;;;;;;;5113006;28;20478;-76
2021/11/22 07:15:36;;;;;;;33.85;15.55;;;;;;;;;;5113118;28;20095;-73
2021/11/22 07:18:03;;;;;;;28.58;14.98;;;;;;;;;;5113124;28;20027;-71
2021/11/22 07:20:30;;;;;;;37.70;16.90;;;;;;;;;;5112076;28;20058;-73
2021/11/22 07:22:56;;;;;;;30.95;18.30;;;;;;;;;;5113408;28;20440;-70
2021/11/22 07:25:22;;;;;;;34.13;17.70;;;;;;;;;;5112953;28;20035;-72
2021/11/22 07:27:48;;;;;;;34.53;16.17;;;;;;;;;;5107731;28;20066;-70
2021/11/22 07:30:21;;;;;;;29.27;15.70;;;;;;;;;;5092345;28;20022;-64
2021/11/22 07:32:52;;;;;;;32.30;17.08;;;;;;;;;;5092997;28;20032;-73
2021/11/22 07:35:19;;;;;;;30.73;16.17;;;;;;;;;;5096621;28;20012;-77
2021/11/22 07:37:46;;;;;;;27.08;15.60;;;;;;;;;;5112696;28;20023;-67
2021/11/22 07:40:13;;;;;;;27.00;16.20;;;;;;;;;;5112621;28;20032;-72
2021/11/22 07:42:39;;;;;;;23.48;13.55;;;;;;;;;;5112353;28;20048;-72
2021/11/22 07:45:06;;;;;;;22.90;13.55;;;;;;;;;;5111851;28;20069;-76
2021/11/22 07:47:32;;;;;;;28.10;14.18;;;;;;;;;;5112452;28;20065;-68
2021/11/22 07:49:58;;;;;;;25.50;15.43;;;;;;;;;;5112368;28;20023;-71
2021/11/22 07:52:24;;;;;;;28.35;15.88;;;;;;;;;;5112193;28;20039;-70
2021/11/22 07:54:50;;;;;;;26.42;15.88;;;;;;;;;;5112196;28;20020;-73
2021/11/22 07:57:17;;;;;;;22.90;13.55;;;;;;;;;;5112288;28;20020;-69
2021/11/22 07:59:43;;;;;;;23.80;15.10;;;;;;;;;;5093956;28;20399;-74
2021/11/22 08:02:09;;;;;;;22.27;14.27;;;;;;;;;;5092362;28;20017;-74
2021/11/22 08:04:35;;;;;;;23.63;14.73;;;;;;;;;;5091741;28;20334;-70
2021/11/22 08:07:02;;;;;;;25.33;15.63;;;;;;;;;;5104658;28;20114;-75
2021/11/22 08:09:34;;;;;;;25.90;15.50;;;;;;;;;;5112026;28;20671;-70
2021/11/22 08:12:26;;;;;;;23.15;13.60;;;;;;;;;;5111587;28;20107;-70
2021/11/22 08:14:53;;;;;;;25.45;14.27;;;;;;;;;;5111920;28;20024;-74
2021/11/22 08:17:19;;;;;;;22.95;13.77;;;;;;;;;;5093478;28;20047;-74
2021/11/22 08:19:45;;;;;;;25.33;13.80;;;;;;;;;;5110974;28;20545;-73
2021/11/22 08:22:12;;;;;;;23.63;14.05;;;;;;;;;;5111963;28;20081;-71
2021/11/22 08:24:39;;;;;;;20.80;12.43;;;;;;;;;;5111840;28;20097;-71
2021/11/22 08:27:05;;;;;;;22.38;14.50;;;;;;;;;;5111643;28;20038;-70
2021/11/22 08:29:31;;;;;;;21.20;11.45;;;;;;;;;;5111746;28;20118;-74
2021/11/22 08:31:57;;;;;;;24.90;13.00;;;;;;;;;;5092943;28;20114;-74
2021/11/22 08:34:24;;;;;;;21.98;13.52;;;;;;;;;;5110212;28;20024;-74
2021/11/22 08:36:51;;;;;;;48.35;14.35;;;;;;;;;;5094279;28;20024;-75
2021/11/22 08:39:17;;;;;;;24.63;12.90;;;;;;;;;;5091199;28;20023;-75
2021/11/22 08:41:43;;;;;;;34.08;13.73;;;;;;;;;;5069611;28;20476;-76
2021/11/22 08:44:09;;;;;;;22.42;13.68;;;;;;;;;;5077185;28;20533;-69
2021/11/22 08:46:36;;;;;;;31.30;14.65;;;;;;;;;;5090982;28;20081;-72
2021/11/22 08:49:03;;;;;;;27.65;12.93;;;;;;;;;;5090978;28;20085;-75
2021/11/22 08:51:29;;;;;;;25.08;13.85;;;;;;;;;;5091335;28;20016;-65
2021/11/22 08:53:55;;;;;;;29.10;14.20;;;;;;;;;;5075940;28;20033;-70
2021/11/22 08:56:22;;;;;;;23.83;12.75;;;;;;;;;;5070977;28;20494;-64
2021/11/22 08:58:48;;;;;;;18.63;12.52;;;;;;;;;;5071011;28;20105;-73
2021/11/22 09:01:14;;;;;;;22.60;12.68;;;;;;;;;;5077630;28;20025;-74
2021/11/22 09:03:40;;;;;;;24.25;14.13;;;;;;;;;;5079393;28;20020;-76
2021/11/22 09:06:06;;;;;;;27.38;13.80;;;;;;;;;;5091504;28;20032;-77
2021/11/22 09:08:32;;;;;;;21.75;13.10;;;;;;;;;;5091228;28;20076;-68
2021/11/22 09:10:58;;;;;;;23.05;12.93;;;;;;;;;;5091669;28;20056;-77
2021/11/22 09:13:24;;;;;;;23.73;12.15;;;;;;;;;;5089987;28;20020;-69
2021/11/22 09:15:51;;;;;;;23.45;12.57;;;;;;;;;;5091118;28;20024;-69
2021/11/22 09:18:17;;;;;;;19.10;12.25;;;;;;;;;;5090175;28;20024;-69
2021/11/22 09:20:43;;;;;;;22.60;12.30;;;;;;;;;;5091335;28;20150;-75
2021/11/22 09:23:11;;;;;;;20.85;12.45;;;;;;;;;;5091079;28;20065;-74
2021/11/22 09:25:37;;;;;;;20.13;12.70;;;;;;;;;;5094459;28;20123;-73
2021/11/22 09:28:03;;;;;;;20.33;13.23;;;;;;;;;;5094806;28;20020;-75
2021/11/22 09:30:29;;;;;;;18.25;11.23;;;;;;;;;;5094743;28;20020;-68
2021/11/22 09:32:55;;;;;;;19.08;12.27;;;;;;;;;;5094508;28;20065;-74
2021/11/22 09:35:25;;;;;;;18.08;12.38;;;;;;;;;;5094813;28;20585;-73
2021/11/22 09:37:51;;;;;;;20.58;12.52;;;;;;;;;;5094828;28;20027;-74
2021/11/22 09:40:17;;;;;;;16.52;10.75;;;;;;;;;;5094620;28;20447;-66
2021/11/22 09:42:43;;;;;;;19.30;11.13;;;;;;;;;;5111247;28;20040;-66
2021/11/22 09:45:11;;;;;;;19.92;11.50;;;;;;;;;;5115217;28;20024;-72
2021/11/22 09:47:38;;;;;;;19.85;10.52;;;;;;;;;;5115095;28;20028;-70
2021/11/22 09:50:06;;;;;;;18.20;11.40;;;;;;;;;;5118780;27;20020;-76
2021/11/22 09:52:33;;;;;;;21.05;11.15;;;;;;;;;;5097004;28;20368;-67
2021/11/22 09:54:59;;;;;;;18.60;11.32;;;;;;;;;;5114933;28;20059;-67
2021/11/22 09:57:25;;;;;;;19.98;10.52;;;;;;;;;;5097909;28;20048;-76
2021/11/22 09:59:51;;;;;;;16.35;11.57;;;;;;;;;;5093980;28;20034;-66
2021/11/22 10:02:17;;;;;;;15.32;9.95;;;;;;;;;;5094444;28;20024;-73
2021/11/22 10:04:43;;;;;;;18.02;11.25;;;;;;;;;;5099664;28;20054;-76
2021/11/22 10:07:10;;;;;;;14.95;10.15;;;;;;;;;;5096277;28;20492;-74
2021/11/22 10:09:41;;;;;;;15.40;10.75;;;;;;;;;;5114741;28;20030;-74
2021/11/22 10:12:07;;;;;;;22.88;10.95;;;;;;;;;;5114515;28;20024;-75
2021/11/22 10:14:52;;;;;;;19.30;10.15;;;;;;;;;;5114318;28;20026;-73
2021/11/22 10:17:18;;;;;;;17.05;10.00;;;;;;;;;;5110700;28;20031;-69
2021/11/22 10:19:45;;;;;;;13.93;9.40;;;;;;;;;;5114646;28;20530;-74
2021/11/22 10:22:20;;;;;;;12.38;8.18;;;;;;;;;;5114481;28;20067;-75
2021/11/22 10:24:46;;;;;;;14.93;8.90;;;;;;;;;;5114294;28;20482;-73
2021/11/22 10:27:12;;;;;;;17.60;9.60;;;;;;;;;;5114103;28;20027;-73
2021/11/22 10:29:38;;;;;;;12.38;8.27;;;;;;;;;;5113999;28;20561;-72
2021/11/22 10:32:05;;;;;;;14.98;9.45;;;;;;;;;;5113952;28;20051;-74
2021/11/22 10:34:35;;;;;;;12.05;8.50;;;;;;;;;;5113831;28;20098;-67
2021/11/22 10:37:06;;;;;;;14.13;9.23;;;;;;;;;;5114160;28;20051;-74
2021/11/22 10:39:33;;;;;;;14.00;9.52;;;;;;;;;;5114087;28;20020;-75
2021/11/22 10:41:59;;;;;;;14.00;9.85;;;;;;;;;;5113583;28;20463;-79
2021/11/22 10:44:30;;;;;;;16.45;10.00;;;;;;;;;;5095521;28;20570;-75
2021/11/22 10:47:09;;;;;;;14.73;9.80;;;;;;;;;;5114065;28;20023;-74
2021/11/22 10:49:48;;;;;;;15.43;9.73;;;;;;;;;;5113991;28;20019;-74
2021/11/22 10:52:26;;;;;;;13.38;8.35;;;;;;;;;;5113895;28;20020;-76
2021/11/22 10:54:56;;;;;;;11.73;8.45;;;;;;;;;;5117258;28;20027;-74
2021/11/22 10:57:23;;;;;;;14.00;9.30;;;;;;;;;;5108257;28;20874;-73
2021/11/22 10:59:49;;;;;;;14.55;8.73;;;;;;;;;;5094924;28;20047;-75
2021/11/22 11:02:15;;;;;;;12.80;8.77;;;;;;;;;;5092394;28;20020;-74
2021/11/22 11:04:45;;;;;;;14.13;9.90;;;;;;;;;;5093144;28;20031;-76
2021/11/22 11:07:11;;;;;;;14.88;9.38;;;;;;;;;;5075013;28;20027;-74
2021/11/22 11:09:39;;;;;;;14.48;9.43;;;;;;;;;;5093210;28;20028;-73
2021/11/22 11:12:09;;;;;;;12.60;8.57;;;;;;;;;;5074526;28;20024;-73
2021/11/22 11:14:37;;;;;;;14.90;8.50;;;;;;;;;;5074445;28;20111;-76
2021/11/22 11:17:17;;;;;;;12.52;8.75;;;;;;;;;;5074565;28;20115;-76
2021/11/22 11:19:44;;;;;;;12.20;7.88;;;;;;;;;;5092496;28;20422;-75
2021/11/22 11:22:10;;;;;;;12.40;8.00;;;;;;;;;;5092519;28;20378;-74
2021/11/22 11:24:37;;;;;;;14.18;8.57;;;;;;;;;;5074313;28;20074;-76
2021/11/22 11:27:03;;;;;;;12.77;8.75;;;;;;;;;;5092428;28;20107;-72
2021/11/22 11:29:29;;;;;;;11.07;7.72;;;;;;;;;;5092367;28;20026;-73
2021/11/22 11:31:55;;;;;;;11.10;7.32;;;;;;;;;;5074155;28;20020;-74
2021/11/22 11:34:27;;;;;;;10.98;7.57;;;;;;;;;;5092837;28;20012;-74
2021/11/22 11:37:02;;;;;;;11.00;7.25;;;;;;;;;;5092904;28;20067;-73
2021/11/22 11:39:40;;;;;;;12.50;7.80;;;;;;;;;;5074495;28;20035;-74
2021/11/22 11:42:22;;;;;;;12.40;8.20;;;;;;;;;;5092333;28;20044;-70
2021/11/22 11:45:02;;;;;;;12.80;7.63;;;;;;;;;;5092166;28;20394;-74
2021/11/22 11:47:33;;;;;;;14.93;8.23;;;;;;;;;;5093632;28;20031;-74
2021/11/22 11:50:17;;;;;;;13.45;8.65;;;;;;;;;;5091867;28;20052;-75
2021/11/22 11:52:51;;;;;;;18.90;8.90;;;;;;;;;;5093295;28;20414;-74
2021/11/22 11:55:17;;;;;;;10.18;7.55;;;;;;;;;;5112082;28;20051;-73
2021/11/22 11:57:43;;;;;;;11.45;7.47;;;;;;;;;;5110034;28;20028;-75
2021/11/22 12:00:22;;;;;;;13.95;8.55;;;;;;;;;;5092358;28;20104;-75
2021/11/22 12:02:58;;;;;;;11.73;7.65;;;;;;;;;;5091807;28;20028;-72
2021/11/22 12:05:42;;;;;;;12.73;7.82;;;;;;;;;;5091768;28;20475;-75
2021/11/22 12:08:27;;;;;;;8.48;5.88;;;;;;;;;;5096048;28;20503;-73
2021/11/22 12:10:56;;;;;;;10.98;7.25;;;;;;;;;;5094182;28;20462;-75
2021/11/22 12:13:22;;;;;;;11.10;7.32;;;;;;;;;;5112684;28;20374;-76
2021/11/22 12:15:55;;;;;;;10.75;6.47;;;;;;;;;;5112311;28;20027;-77
2021/11/22 12:18:32;;;;;;;10.85;7.05;;;;;;;;;;5112159;28;20020;-73
2021/11/22 12:21:04;;;;;;;10.23;7.55;;;;;;;;;;5111669;28;20073;-76
2021/11/22 12:23:40;;;;;;;12.57;7.97;;;;;;;;;;5111862;28;20030;-75
2021/11/22 12:26:06;;;;;;;11.35;8.18;;;;;;;;;;5111858;28;20356;-75
2021/11/22 12:28:32;;;;;;;12.60;7.80;;;;;;;;;;5093489;28;20038;-74
2021/11/22 12:31:01;;;;;;;10.02;7.05;;;;;;;;;;5111606;28;20019;-76
2021/11/22 12:33:28;;;;;;;11.27;7.50;;;;;;;;;;5111816;28;20103;-75
2021/11/22 12:35:56;;;;;;;11.55;7.53;;;;;;;;;;5093956;28;20386;-75
2021/11/22 12:38:23;;;;;;;12.85;8.07;;;;;;;;;;5093849;28;20020;-76
2021/11/22 12:40:51;;;;;;;10.40;6.55;;;;;;;;;;5111573;28;20024;-76
2021/11/22 12:43:36;;;;;;;10.93;7.35;;;;;;;;;;5103988;28;20032;-75
2021/11/22 12:46:04;;;;;;;10.77;6.38;;;;;;;;;;5091770;28;20032;-78
2021/11/22 12:48:34;;;;;;;8.75;6.35;;;;;;;;;;5091925;28;20013;-72
2021/11/22 12:51:02;;;;;;;11.48;7.00;;;;;;;;;;5091628;28;20032;-78
2021/11/22 12:53:28;;;;;;;9.10;6.28;;;;;;;;;;5091848;28;20024;-67
2021/11/22 12:55:55;;;;;;;10.48;7.25;;;;;;;;;;5092445;28;20105;-73
2021/11/22 12:58:26;;;;;;;8.93;6.72;;;;;;;;;;5111319;28;20023;-74
2021/11/22 13:00:54;;;;;;;13.00;7.15;;;;;;;;;;5087075;28;20043;-74
2021/11/22 13:03:24;;;;;;;10.52;6.85;;;;;;;;;;5095250;28;20027;-75
2021/11/22 13:05:51;;;;;;;13.10;7.55;;;;;;;;;;5094980;28;20035;-74
2021/11/22 13:08:17;;;;;;;11.25;6.70;;;;;;;;;;5095466;28;20129;-67
2021/11/22 13:11:02;;;;;;;11.80;7.28;;;;;;;;;;5095088;28;20028;-72
2021/11/22 13:16:08;;;;;;;9.35;6.43;;;;;;;;;;5095208;28;20032;-75
2021/11/22 13:18:35;;;;;;;8.77;5.93;;;;;;;;;;5106244;28;20463;-69
2021/11/22 13:21:03;;;;;;;7.55;5.47;;;;;;;;;;5115351;28;20028;-73
2021/11/22 13:23:31;;;;;;;12.75;6.47;;;;;;;;;;5100893;28;20184;-71
2021/11/22 13:25:58;;;;;;;8.05;5.45;;;;;;;;;;5110374;28;20111;-74
2021/11/22 13:28:26;;;;;;;10.32;6.55;;;;;;;;;;5111449;28;20040;-68
2021/11/22 13:30:53;;;;;;;10.48;5.97;;;;;;;;;;5094370;28;20027;-74
2021/11/22 13:33:19;;;;;;;10.52;7.10;;;;;;;;;;5094458;28;20088;-73
2021/11/22 13:35:45;;;;;;;11.00;7.40;;;;;;;;;;5094554;28;20443;-73
2021/11/22 13:38:13;;;;;;;11.80;7.00;;;;;;;;;;5094237;28;20031;-72
2021/11/22 13:40:40;;;;;;;10.30;6.82;;;;;;;;;;5094238;28;20412;-63
2021/11/22 13:43:07;;;;;;;11.95;7.43;;;;;;;;;;5094451;28;20512;-72
2021/11/22 13:45:33;;;;;;;12.00;7.28;;;;;;;;;;5094050;28;20039;-72
2021/11/22 13:47:59;;;;;;;10.35;6.10;;;;;;;;;;5094136;28;20141;-73
2021/11/22 13:50:27;;;;;;;10.65;5.82;;;;;;;;;;5094111;28;20598;-69
2021/11/22 13:52:54;;;;;;;11.32;7.18;;;;;;;;;;5104299;28;20024;-72
2021/11/22 13:55:21;;;;;;;9.40;5.93;;;;;;;;;;5114441;28;20051;-75
2021/11/22 13:57:47;;;;;;;10.43;6.40;;;;;;;;;;5095893;28;20088;-73
2021/11/22 14:00:15;;;;;;;10.13;6.18;;;;;;;;;;5097726;28;20036;-64
2021/11/22 14:02:41;;;;;;;10.27;6.10;;;;;;;;;;5094286;28;20020;-78
2021/11/22 14:05:07;;;;;;;11.60;7.78;;;;;;;;;;5094396;28;20812;-78
2021/11/22 14:07:42;;;;;;;12.10;7.30;;;;;;;;;;5078626;28;20081;-78
2021/11/22 14:10:08;;;;;;;10.55;6.70;;;;;;;;;;5096266;28;20016;-74
2021/11/22 14:12:35;;;;;;;13.88;6.95;;;;;;;;;;5093886;28;20474;-73
2021/11/22 14:15:01;;;;;;;11.15;5.93;;;;;;;;;;5093831;28;20031;-72
2021/11/22 14:17:28;;;;;;;10.90;6.50;;;;;;;;;;5112160;28;20058;-75
2021/11/22 14:20:07;;;;;;;11.77;6.80;;;;;;;;;;5114086;28;20016;-75
2021/11/22 14:22:40;;;;;;;9.82;6.22;;;;;;;;;;5114079;28;20114;-73
2021/11/22 14:25:07;;;;;;;10.57;7.03;;;;;;;;;;5114040;28;20561;-72
2021/11/22 14:27:37;;;;;;;11.63;7.45;;;;;;;;;;5095767;28;20360;-70